Guacui, Brazil
Current Conditions -  °F | °C
As of 8:00 PM on Friday 19 Dec 2014 (Local Time) from SBCP Reporting Station
Clear Clear  
Wind Chill: 81°   Ceiling: Unl
Heat Index: 85°   Visibility: 6mi
Dew Point: 73°   Wind: 14mph
Humidity: 79%   Direction: 70°ENE
Pressure: 29.77"   Gusts: NA
Location:  20.78°S, 41.68°W
Report Text: SBCP 192200Z 07012KT CAVOK 27/23 Q1008
Loading
Personal Weather Stations






























Interactive Weather Map New forecast layout! Learn more

10-Day Weather Forecast

Advertisements
Track Severe Weather on mobile